Time;durP1;ratioP1;P1;durP2;ratioP2;P2;SDS_P1;SDS_P2;PMS_P1;PMS_P2;Temp;Humidity;BMP_temperature;BMP_pressure;BME280_temperature;BME280_humidity;BME280_pressure;Samples;Min_cycle;Max_cycle;Signal;HPM_P1;HPM_P2
2023/03/08 00:01:18;;;;;;;1.60;1.50;;;1.90;98.20;;;;;;5017211;28;20481;-77
2023/03/08 00:03:46;;;;;;;1.60;1.50;;;1.90;98.20;;;;;;5025110;28;20468;-77
2023/03/08 00:06:15;;;;;;;1.63;1.50;;;1.90;98.20;;;;;;5015666;28;20498;-77
2023/03/08 00:08:44;;;;;;;1.60;1.40;;;1.90;98.20;;;;;;5028208;28;21012;-77
2023/03/08 00:11:12;;;;;;;1.60;1.40;;;1.90;98.20;;;;;;5018964;28;20489;-76
2023/03/08 00:13:40;;;;;;;1.60;1.50;;;1.90;98.20;;;;;;5030939;28;20463;-77
2023/03/08 00:16:08;;;;;;;1.60;1.40;;;1.90;98.20;;;;;;5008772;28;20891;-77
2023/03/08 00:18:36;;;;;;;1.60;1.50;;;1.90;98.20;;;;;;5028164;28;20451;-76
2023/03/08 00:21:05;;;;;;;1.60;1.40;;;1.90;98.20;;;;;;5009682;28;20466;-78
2023/03/08 00:23:33;;;;;;;1.60;1.50;;;1.90;98.20;;;;;;5027172;28;20468;-76
2023/03/08 00:26:01;;;;;;;1.60;1.50;;;1.90;98.20;;;;;;5008922;28;20501;-77
2023/03/08 00:28:28;;;;;;;1.80;1.70;;;1.90;98.20;;;;;;5029821;28;20491;-76
2023/03/08 00:30:56;;;;;;;1.60;1.50;;;1.90;98.20;;;;;;5015655;28;20467;-76
2023/03/08 00:33:22;;;;;;;1.60;1.50;;;1.90;98.20;;;;;;5022726;28;20835;-76
2023/03/08 00:35:55;;;;;;;1.60;1.50;;;1.90;98.20;;;;;;5015290;28;20471;-76
2023/03/08 00:38:22;;;;;;;1.60;1.40;;;1.90;98.20;;;;;;5015260;28;20618;-76
2023/03/08 00:40:49;;;;;;;1.70;1.60;;;1.90;98.20;;;;;;5015680;28;20455;-75
2023/03/08 00:43:17;;;;;;;1.60;1.43;;;1.90;98.20;;;;;;5032447;28;20462;-76
2023/03/08 00:45:44;;;;;;;1.70;1.60;;;1.90;98.20;;;;;;5012674;28;20456;-76
2023/03/08 00:48:10;;;;;;;1.87;1.77;;;2.00;98.20;;;;;;5016196;28;20479;-76
2023/03/08 00:50:38;;;;;;;1.60;1.43;;;1.90;98.20;;;;;;5027711;28;20546;-76
2023/03/08 00:53:04;;;;;;;1.60;1.40;;;2.00;98.20;;;;;;5011517;28;20483;-75
2023/03/08 00:55:31;;;;;;;1.60;1.40;;;1.90;98.20;;;;;;5027501;28;20845;-75
2023/03/08 00:57:58;;;;;;;1.70;1.60;;;1.90;98.20;;;;;;5014684;28;20488;-75
2023/03/08 01:00:26;;;;;;;1.60;1.50;;;1.90;98.20;;;;;;5027400;28;20459;-75
2023/03/08 01:02:53;;;;;;;1.70;1.60;;;1.90;98.20;;;;;;5010442;28;20510;-75
2023/03/08 01:05:19;;;;;;;1.67;1.50;;;1.90;98.20;;;;;;5022057;28;20477;-75
2023/03/08 01:07:46;;;;;;;1.70;1.60;;;1.80;98.20;;;;;;5011866;28;20483;-75
2023/03/08 01:10:13;;;;;;;1.60;1.50;;;1.80;98.20;;;;;;5027899;28;20467;-75
2023/03/08 01:12:40;;;;;;;1.70;1.50;;;1.80;98.20;;;;;;5015589;28;20490;-74
2023/03/08 01:15:08;;;;;;;1.60;1.50;;;1.90;98.20;;;;;;5008892;28;20460;-75
2023/03/08 01:17:36;;;;;;;1.63;1.50;;;1.90;98.20;;;;;;5017535;28;20487;-75
2023/03/08 01:20:03;;;;;;;1.60;1.50;;;1.90;98.20;;;;;;5022752;28;20459;-74
2023/03/08 01:22:30;;;;;;;1.60;1.40;;;1.90;98.20;;;;;;5006261;28;20561;-74
2023/03/08 01:24:57;;;;;;;1.60;1.50;;;1.90;98.20;;;;;;5026902;28;20784;-74
2023/03/08 01:27:24;;;;;;;1.67;1.50;;;1.90;98.20;;;;;;5014889;28;20491;-74
2023/03/08 01:29:51;;;;;;;1.60;1.50;;;1.90;98.20;;;;;;5017846;28;20474;-74
2023/03/08 01:32:17;;;;;;;1.63;1.50;;;1.90;98.20;;;;;;5010168;28;20482;-74
2023/03/08 01:34:45;;;;;;;1.60;1.50;;;1.90;98.20;;;;;;5023531;28;20470;-76
2023/03/08 01:37:12;;;;;;;1.60;1.50;;;1.90;98.20;;;;;;5017456;28;20494;-74
2023/03/08 01:39:39;;;;;;;1.60;1.40;;;1.90;98.20;;;;;;5027080;28;20463;-74
2023/03/08 01:42:06;;;;;;;1.70;1.60;;;1.90;98.20;;;;;;5019379;28;20856;-74
2023/03/08 01:44:49;;;;;;;1.60;1.40;;;1.90;98.20;;;;;;5020186;28;20489;-75
2023/03/08 01:47:18;;;;;;;1.60;1.40;;;1.90;98.20;;;;;;5014860;28;20490;-74
2023/03/08 01:49:47;;;;;;;1.60;1.40;;;2.00;98.20;;;;;;5009988;28;20475;-75
2023/03/08 01:52:18;;;;;;;1.70;1.60;;;1.90;98.20;;;;;;5003098;28;20488;-74
2023/03/08 01:54:48;;;;;;;1.60;1.47;;;2.00;98.20;;;;;;5025514;28;20463;-76
2023/03/08 01:57:19;;;;;;;1.60;1.40;;;2.00;98.20;;;;;;5007094;28;20487;-74
2023/03/08 01:59:48;;;;;;;1.60;1.43;;;1.90;98.20;;;;;;5017857;28;20844;-74
2023/03/08 02:02:15;;;;;;;1.60;1.40;;;1.90;98.20;;;;;;5014713;28;20856;-75
2023/03/08 02:04:42;;;;;;;1.67;1.50;;;1.90;98.20;;;;;;5026579;28;20455;-74
2023/03/08 02:07:11;;;;;;;1.60;1.40;;;1.90;98.20;;;;;;5011532;28;20484;-74
2023/03/08 02:09:38;;;;;;;1.60;1.40;;;1.90;98.20;;;;;;5015270;28;20810;-74
2023/03/08 02:12:11;;;;;;;1.60;1.50;;;1.90;98.20;;;;;;5010049;28;20491;-75
2023/03/08 02:14:38;;;;;;;1.60;1.50;;;1.90;98.20;;;;;;5027419;28;20459;-74
2023/03/08 02:17:04;;;;;;;1.60;1.50;;;1.90;98.20;;;;;;4993063;28;20499;-74
2023/03/08 02:19:41;;;;;;;1.60;1.50;;;1.90;98.20;;;;;;5021307;28;20479;-74
2023/03/08 02:22:11;;;;;;;1.60;1.40;;;1.90;98.20;;;;;;5003820;28;20476;-73
2023/03/08 02:24:40;;;;;;;1.70;1.60;;;1.90;98.20;;;;;;5020983;28;20534;-74
2023/03/08 02:27:11;;;;;;;3.07;2.87;;;1.90;98.20;;;;;;5002302;28;20480;-74
2023/03/08 02:29:39;;;;;;;1.60;1.40;;;1.80;98.20;;;;;;5021613;28;20543;-74
2023/03/08 02:32:06;;;;;;;2.03;1.83;;;1.80;98.20;;;;;;5004859;28;20898;-73
2023/03/08 02:34:33;;;;;;;1.60;1.40;;;1.70;98.20;;;;;;5022262;28;20459;-73
2023/03/08 02:37:00;;;;;;;1.60;1.40;;;1.70;98.20;;;;;;5005640;28;20543;-73
2023/03/08 02:39:27;;;;;;;1.60;1.40;;;1.70;98.20;;;;;;5073322;22;20496;-80
2023/03/08 02:41:59;;;;;;;1.63;1.50;;;1.70;98.20;;;;;;5058226;28;20537;-76
2023/03/08 02:44:28;;;;;;;1.60;1.40;;;1.70;98.20;;;;;;5059717;28;20457;-76
2023/03/08 02:46:55;;;;;;;1.60;1.50;;;1.70;98.20;;;;;;5047296;28;20846;-79
2023/03/08 02:49:22;;;;;;;1.60;1.50;;;1.70;98.20;;;;;;5065320;28;20488;-78
2023/03/08 02:51:48;;;;;;;1.60;1.50;;;1.70;98.20;;;;;;5063374;28;20488;-80
2023/03/08 02:54:15;;;;;;;1.70;1.50;;;1.70;98.20;;;;;;5054021;28;20466;-78
2023/03/08 02:56:42;;;;;;;4.70;4.40;;;1.70;98.20;;;;;;5056484;28;20481;-78
2023/03/08 02:59:10;;;;;;;1.60;1.40;;;1.70;98.20;;;;;;5053521;28;20576;-78
2023/03/08 03:01:37;;;;;;;1.80;1.70;;;1.60;98.20;;;;;;5054278;28;20857;-79
2023/03/08 03:04:03;;;;;;;1.70;1.60;;;1.70;98.20;;;;;;5059057;28;20720;-78
2023/03/08 03:06:30;;;;;;;1.60;1.50;;;1.60;98.20;;;;;;5051225;28;20478;-76
2023/03/08 03:08:57;;;;;;;1.67;1.50;;;1.60;98.20;;;;;;5050856;28;20554;-78
2023/03/08 03:11:24;;;;;;;1.60;1.50;;;1.60;98.20;;;;;;5051883;28;20464;-78
2023/03/08 03:13:55;;;;;;;1.63;1.50;;;1.60;98.20;;;;;;5069199;28;20464;-78
2023/03/08 03:16:24;;;;;;;1.60;1.50;;;1.60;98.20;;;;;;5060539;28;20562;-78
2023/03/08 03:18:51;;;;;;;1.60;1.50;;;1.60;98.20;;;;;;5062666;28;20477;-77
2023/03/08 03:21:18;;;;;;;1.60;1.50;;;1.60;98.20;;;;;;5058066;28;20472;-77
2023/03/08 03:23:45;;;;;;;1.60;1.50;;;1.60;98.20;;;;;;5080383;28;20457;-77
2023/03/08 03:26:14;;;;;;;1.60;1.50;;;1.60;98.20;;;;;;5059714;28;20465;-76
2023/03/08 03:28:56;;;;;;;1.60;1.50;;;1.60;98.20;;;;;;5060970;28;20512;-77
2023/03/08 03:31:25;;;;;;;1.60;1.50;;;1.60;98.20;;;;;;5061162;28;20468;-78
2023/03/08 03:33:53;;;;;;;1.60;1.50;;;1.60;98.20;;;;;;5066913;28;20476;-78
2023/03/08 03:36:21;;;;;;;1.60;1.50;;;1.60;98.20;;;;;;5051596;28;20477;-77
2023/03/08 03:38:50;;;;;;;1.60;1.50;;;1.60;98.20;;;;;;5066864;28;20508;-77
2023/03/08 03:41:19;;;;;;;1.60;1.50;;;1.60;98.20;;;;;;5055157;28;20630;-78
2023/03/08 03:43:47;;;;;;;1.60;1.50;;;1.60;98.20;;;;;;5070837;28;20469;-77
2023/03/08 03:46:15;;;;;;;1.63;1.50;;;1.60;98.20;;;;;;5058705;28;20481;-77
2023/03/08 03:48:43;;;;;;;1.60;1.50;;;1.70;98.20;;;;;;5071231;28;20489;-77
2023/03/08 03:51:12;;;;;;;1.70;1.50;;;1.70;98.20;;;;;;5060912;28;20557;-77
2023/03/08 03:53:39;;;;;;;1.60;1.50;;;1.70;98.20;;;;;;5072265;28;20969;-77
2023/03/08 03:56:08;;;;;;;1.60;1.47;;;1.70;98.20;;;;;;5058305;28;20465;-78
2023/03/08 03:58:35;;;;;;;1.60;1.40;;;1.70;98.20;;;;;;5062891;28;20532;-77
2023/03/08 04:01:07;;;;;;;1.60;1.40;;;1.70;98.20;;;;;;5057438;28;20458;-77
2023/03/08 04:03:34;;;;;;;1.70;1.50;;;1.70;98.20;;;;;;5066960;28;20480;-76
2023/03/08 04:06:07;;;;;;;1.63;1.47;;;1.70;98.20;;;;;;5058050;28;20458;-79
2023/03/08 04:08:40;;;;;;;1.63;1.50;;;1.60;98.20;;;;;;5072753;28;20485;-77
2023/03/08 04:11:08;;;;;;;1.60;1.50;;;1.60;98.20;;;;;;5057854;28;20546;-77
2023/03/08 04:13:34;;;;;;;1.70;1.60;;;1.70;98.20;;;;;;5066541;28;20496;-77
2023/03/08 04:16:09;;;;;;;1.60;1.50;;;1.70;98.20;;;;;;5046623;28;20486;-76
2023/03/08 04:18:35;;;;;;;1.60;1.50;;;1.70;98.20;;;;;;5063250;28;20499;-76
2023/03/08 04:21:03;;;;;;;1.60;1.40;;;1.70;98.20;;;;;;5048300;28;20461;-76
2023/03/08 04:23:32;;;;;;;1.70;1.50;;;1.70;98.20;;;;;;5061290;28;20481;-77
2023/03/08 04:25:59;;;;;;;1.60;1.40;;;1.70;98.20;;;;;;5048955;28;20767;-75
2023/03/08 04:28:26;;;;;;;1.60;1.50;;;1.70;98.20;;;;;;5047765;28;20494;-77
2023/03/08 04:30:53;;;;;;;1.60;1.50;;;1.70;98.20;;;;;;5044699;28;20465;-77
2023/03/08 04:33:20;;;;;;;1.70;1.60;;;1.70;98.20;;;;;;5057489;28;20573;-76
2023/03/08 04:35:47;;;;;;;1.60;1.50;;;1.70;98.20;;;;;;5055096;28;20467;-76
2023/03/08 04:38:14;;;;;;;1.60;1.50;;;1.70;98.20;;;;;;5059973;28;20892;-75
2023/03/08 04:41:10;;;;;;;1.67;1.53;;;1.70;98.20;;;;;;5059630;28;20457;-76
2023/03/08 04:43:38;;;;;;;1.60;1.40;;;1.70;98.20;;;;;;5023727;28;20481;-77
2023/03/08 04:46:05;;;;;;;1.60;1.50;;;1.70;98.20;;;;;;5044587;28;20582;-76
2023/03/08 04:48:33;;;;;;;1.70;1.53;;;1.70;98.20;;;;;;5064381;28;20500;-79
2023/03/08 04:51:01;;;;;;;1.60;1.40;;;1.70;98.20;;;;;;5052998;28;20808;-79
2023/03/08 04:53:29;;;;;;;1.60;1.40;;;1.70;98.20;;;;;;5067971;28;21223;-78
2023/03/08 04:55:59;;;;;;;1.60;1.40;;;1.60;98.20;;;;;;5046726;28;20453;-76
2023/03/08 04:58:26;;;;;;;1.60;1.50;;;1.60;98.20;;;;;;5056248;28;20492;-75
2023/03/08 05:00:53;;;;;;;1.73;1.63;;;1.60;98.20;;;;;;5046686;28;20853;-76
2023/03/08 05:03:20;;;;;;;1.63;1.50;;;1.50;98.20;;;;;;5056369;28;20849;-77
2023/03/08 05:05:48;;;;;;;1.70;1.60;;;1.50;98.20;;;;;;5056748;28;20461;-77
2023/03/08 05:08:15;;;;;;;2.83;2.63;;;1.50;98.20;;;;;;5049726;28;20484;-76
2023/03/08 05:10:47;;;;;;;1.60;1.40;;;1.50;98.20;;;;;;5052431;28;20890;-76
2023/03/08 05:13:16;;;;;;;1.60;1.40;;;1.50;98.20;;;;;;5025311;28;20486;-76
2023/03/08 05:15:42;;;;;;;1.70;1.60;;;1.50;98.20;;;;;;5058257;28;20670;-75
2023/03/08 05:18:09;;;;;;;1.70;1.57;;;1.40;98.20;;;;;;5043726;28;20481;-78
2023/03/08 05:20:36;;;;;;;1.70;1.50;;;1.40;98.20;;;;;;5063052;28;20458;-79
2023/03/08 05:23:03;;;;;;;1.73;1.63;;;1.40;98.20;;;;;;5035046;28;20569;-75
2023/03/08 05:25:31;;;;;;;1.60;1.50;;;1.40;98.20;;;;;;5057942;28;20884;-78
2023/03/08 05:27:57;;;;;;;1.60;1.40;;;1.40;98.20;;;;;;5045456;28;21025;-78
2023/03/08 05:30:26;;;;;;;1.60;1.50;;;1.30;98.20;;;;;;5059354;28;20482;-77
2023/03/08 05:32:53;;;;;;;1.60;1.50;;;1.30;98.20;;;;;;5052060;28;20576;-80
2023/03/08 05:35:20;;;;;;;1.80;1.70;;;1.30;98.20;;;;;;5061752;28;20485;-76
2023/03/08 05:37:47;;;;;;;2.97;2.77;;;1.30;98.20;;;;;;5051588;28;20493;-77
2023/03/08 05:40:14;;;;;;;1.63;1.50;;;1.30;98.20;;;;;;5063502;28;20552;-77
2023/03/08 05:42:41;;;;;;;1.60;1.50;;;1.30;98.20;;;;;;5049820;28;20482;-77
2023/03/08 05:45:08;;;;;;;1.67;1.50;;;1.30;98.20;;;;;;5060157;28;20549;-78
2023/03/08 05:47:37;;;;;;;1.77;1.67;;;1.30;98.20;;;;;;5036860;28;20569;-76
2023/03/08 05:50:04;;;;;;;1.77;1.67;;;1.30;98.20;;;;;;5063120;28;20697;-81
2023/03/08 05:52:31;;;;;;;1.60;1.50;;;1.30;98.20;;;;;;5046283;28;20569;-78
2023/03/08 05:54:58;;;;;;;1.60;1.40;;;1.30;98.20;;;;;;5057223;28;21027;-77
2023/03/08 05:57:25;;;;;;;1.70;1.60;;;1.30;98.20;;;;;;5050007;28;20524;-78
2023/03/08 05:59:51;;;;;;;1.70;1.50;;;1.20;98.20;;;;;;5062182;28;20457;-76
2023/03/08 06:02:18;;;;;;;1.60;1.50;;;1.20;98.20;;;;;;5054006;28;20787;-78
2023/03/08 06:04:46;;;;;;;1.60;1.47;;;1.20;98.20;;;;;;5058730;28;20484;-76
2023/03/08 06:07:13;;;;;;;1.70;1.60;;;1.10;98.20;;;;;;5047218;28;20512;-80
2023/03/08 06:09:40;;;;;;;1.70;1.60;;;1.10;98.20;;;;;;5065974;28;20494;-78
2023/03/08 06:12:07;;;;;;;1.70;1.60;;;1.10;98.20;;;;;;5052351;28;20484;-78
2023/03/08 06:14:34;;;;;;;1.63;1.40;;;1.10;98.20;;;;;;5060526;28;20458;-78
2023/03/08 06:17:01;;;;;;;1.60;1.50;;;1.10;98.20;;;;;;5048876;28;20492;-80
2023/03/08 06:19:27;;;;;;;1.70;1.60;;;1.10;98.20;;;;;;5057880;28;20497;-80
2023/03/08 06:21:56;;;;;;;1.70;1.60;;;1.10;98.20;;;;;;5049369;28;20537;-75
2023/03/08 06:24:22;;;;;;;1.70;1.50;;;1.10;98.20;;;;;;5061012;28;20979;-77
2023/03/08 06:26:49;;;;;;;1.70;1.60;;;1.10;98.20;;;;;;5053177;28;21120;-77
2023/03/08 06:29:16;;;;;;;1.70;1.50;;;1.10;98.20;;;;;;5066068;28;21012;-77
2023/03/08 06:31:43;;;;;;;1.70;1.40;;;1.10;98.20;;;;;;5047850;28;20478;-77
2023/03/08 06:34:11;;;;;;;1.73;1.63;;;1.10;98.20;;;;;;5062810;28;20518;-78
2023/03/08 06:36:38;;;;;;;1.67;1.47;;;1.10;98.20;;;;;;5047566;28;20478;-80
2023/03/08 06:39:09;;;;;;;1.63;1.50;;;1.10;98.20;;;;;;5063366;28;20526;-77
2023/03/08 06:41:35;;;;;;;1.60;1.50;;;1.00;98.20;;;;;;5053416;28;20469;-80
2023/03/08 06:44:02;;;;;;;1.60;1.50;;;1.00;98.20;;;;;;5059692;28;20462;-76
2023/03/08 06:46:29;;;;;;;1.67;1.50;;;1.00;98.20;;;;;;5043345;28;20489;-77
2023/03/08 06:48:56;;;;;;;1.63;1.50;;;1.00;98.20;;;;;;5044952;28;20481;-82
2023/03/08 06:51:23;;;;;;;1.67;1.53;;;1.10;98.20;;;;;;5055884;28;20474;-77
2023/03/08 06:53:49;;;;;;;1.70;1.60;;;1.10;98.20;;;;;;5062354;28;20905;-80
2023/03/08 06:56:18;;;;;;;1.70;1.53;;;1.10;98.20;;;;;;5049599;28;20479;-80
2023/03/08 06:58:45;;;;;;;1.80;1.70;;;1.10;98.20;;;;;;5054469;28;20488;-78
2023/03/08 07:01:13;;;;;;;1.80;1.70;;;1.10;98.20;;;;;;5047625;28;20468;-78
2023/03/08 07:03:40;;;;;;;1.60;1.50;;;1.10;98.20;;;;;;5058632;28;20464;-78
2023/03/08 07:06:09;;;;;;;1.60;1.50;;;1.10;98.20;;;;;;5055592;28;20470;-79
2023/03/08 07:08:37;;;;;;;1.60;1.50;;;1.10;98.20;;;;;;5061639;28;20496;-79
2023/03/08 07:11:05;;;;;;;1.70;1.60;;;1.10;98.20;;;;;;5053412;28;20489;-79
2023/03/08 07:13:34;;;;;;;1.63;1.50;;;1.10;98.20;;;;;;5058620;28;20462;-80
2023/03/08 07:16:06;;;;;;;1.67;1.50;;;1.10;98.20;;;;;;5052683;28;20559;-80
2023/03/08 07:18:33;;;;;;;1.60;1.50;;;1.10;98.20;;;;;;5062622;28;20490;-80
2023/03/08 07:21:00;;;;;;;1.70;1.53;;;1.10;98.20;;;;;;5061645;28;20457;-79
2023/03/08 07:23:27;;;;;;;1.60;1.50;;;1.10;98.20;;;;;;5063200;28;20530;-78
2023/03/08 07:25:54;;;;;;;1.63;1.50;;;1.10;98.20;;;;;;5055478;28;20548;-79
2023/03/08 07:28:21;;;;;;;1.60;1.50;;;1.20;98.20;;;;;;5058681;28;20478;-77
2023/03/08 07:30:50;;;;;;;1.63;1.50;;;1.20;98.20;;;;;;5065455;28;20501;-81
2023/03/08 07:33:17;;;;;;;1.60;1.50;;;1.20;98.20;;;;;;5074596;28;20490;-76
2023/03/08 07:35:44;;;;;;;1.73;1.63;;;1.30;98.20;;;;;;5073312;28;20851;-77
2023/03/08 07:38:12;;;;;;;1.60;1.50;;;1.30;98.20;;;;;;5049888;28;20983;-77
2023/03/08 07:40:39;;;;;;;1.60;1.40;;;1.30;98.20;;;;;;5069747;28;20796;-77
2023/03/08 07:43:05;;;;;;;1.70;1.60;;;1.30;98.20;;;;;;5042266;28;20480;-77
2023/03/08 07:45:33;;;;;;;1.70;1.50;;;1.40;98.20;;;;;;5067079;28;20480;-77
2023/03/08 07:48:01;;;;;;;1.60;1.50;;;1.40;98.20;;;;;;5050520;28;20526;-78
2023/03/08 07:50:27;;;;;;;1.70;1.50;;;1.30;98.20;;;;;;5064542;28;20492;-78
2023/03/08 07:52:54;;;;;;;1.63;1.40;;;1.30;98.20;;;;;;5053431;28;20494;-78
2023/03/08 07:55:21;;;;;;;1.63;1.47;;;1.30;98.20;;;;;;5060751;28;20946;-78
2023/03/08 07:57:48;;;;;;;1.80;1.70;;;1.30;98.20;;;;;;5053942;28;20848;-76
2023/03/08 08:00:16;;;;;;;1.70;1.60;;;1.30;98.20;;;;;;5060186;28;20546;-76
2023/03/08 08:02:42;;;;;;;1.70;1.50;;;1.30;98.20;;;;;;5048043;28;20477;-76
2023/03/08 08:05:11;;;;;;;1.70;1.50;;;1.30;98.20;;;;;;5065187;28;20461;-76
2023/03/08 08:07:38;;;;;;;1.60;1.50;;;1.30;98.20;;;;;;5058406;28;20567;-76
2023/03/08 08:10:07;;;;;;;1.70;1.60;;;1.30;98.20;;;;;;5056023;28;20496;-75
2023/03/08 08:12:34;;;;;;;1.80;1.70;;;1.40;98.20;;;;;;5051040;28;20514;-76
2023/03/08 08:15:01;;;;;;;1.60;1.50;;;1.40;98.20;;;;;;5060057;28;20967;-76
2023/03/08 08:17:28;;;;;;;1.70;1.53;;;1.40;98.20;;;;;;5039455;28;20478;-75
2023/03/08 08:19:55;;;;;;;1.60;1.50;;;1.50;98.20;;;;;;5063665;28;20488;-78
2023/03/08 08:22:23;;;;;;;1.60;1.50;;;1.50;98.20;;;;;;5045266;28;20509;-79
2023/03/08 08:24:50;;;;;;;1.70;1.60;;;1.50;98.20;;;;;;5057622;28;20458;-77
2023/03/08 08:27:16;;;;;;;1.60;1.47;;;1.50;98.20;;;;;;5055092;28;20477;-76
2023/03/08 08:29:45;;;;;;;1.67;1.50;;;1.50;98.20;;;;;;5059330;28;20647;-77
2023/03/08 08:32:11;;;;;;;1.60;1.40;;;1.50;98.20;;;;;;5050743;28;20779;-76
2023/03/08 08:34:38;;;;;;;1.70;1.60;;;1.50;98.20;;;;;;5060663;28;20886;-76
2023/03/08 08:37:05;;;;;;;1.70;1.50;;;1.50;98.20;;;;;;5048769;28;20478;-76
2023/03/08 08:39:33;;;;;;;1.60;1.50;;;1.50;98.20;;;;;;5063385;28;20485;-77
2023/03/08 08:42:00;;;;;;;1.70;1.53;;;1.60;98.20;;;;;;5062743;22;20493;-76
2023/03/08 08:44:27;;;;;;;1.70;1.60;;;1.60;98.20;;;;;;5062185;28;20476;-75
2023/03/08 08:46:53;;;;;;;1.60;1.47;;;1.60;98.20;;;;;;5042404;28;20482;-74
2023/03/08 08:49:20;;;;;;;1.60;1.40;;;1.50;98.20;;;;;;5059045;28;20472;-77
2023/03/08 08:51:47;;;;;;;1.70;1.60;;;1.50;98.20;;;;;;5049064;28;20494;-74
2023/03/08 08:54:14;;;;;;;1.63;1.40;;;1.50;98.20;;;;;;5064887;28;20458;-75
2023/03/08 08:56:42;;;;;;;2.20;2.00;;;1.60;98.20;;;;;;5038929;28;20490;-75
2023/03/08 08:59:10;;;;;;;1.70;1.60;;;1.60;98.20;;;;;;5043369;28;20466;-75
2023/03/08 09:01:42;;;;;;;1.70;1.50;;;1.70;98.20;;;;;;5054089;28;20892;-74
2023/03/08 09:04:09;;;;;;;1.60;1.50;;;1.70;98.20;;;;;;5052129;28;20500;-77
2023/03/08 09:06:36;;;;;;;1.70;1.60;;;1.60;98.20;;;;;;5052612;28;20503;-77
2023/03/08 09:09:04;;;;;;;1.60;1.50;;;1.60;98.20;;;;;;5066135;28;20553;-76
2023/03/08 09:11:31;;;;;;;1.60;1.50;;;1.50;98.20;;;;;;5058079;28;20526;-74
2023/03/08 09:14:01;;;;;;;1.70;1.50;;;1.50;98.20;;;;;;5060965;28;20473;-75
2023/03/08 09:16:29;;;;;;;1.63;1.40;;;1.50;98.20;;;;;;5048239;28;21154;-75
2023/03/08 09:18:57;;;;;;;1.60;1.40;;;1.50;98.20;;;;;;5059476;28;20466;-75
2023/03/08 09:21:24;;;;;;;1.63;1.50;;;1.50;98.20;;;;;;5056508;28;20468;-74
2023/03/08 09:23:51;;;;;;;1.77;1.67;;;1.50;98.20;;;;;;5060508;28;20480;-75
2023/03/08 09:26:18;;;;;;;1.70;1.50;;;1.50;98.20;;;;;;5057332;28;20485;-74
2023/03/08 09:28:46;;;;;;;1.70;1.60;;;1.60;98.20;;;;;;5065969;28;20457;-74
2023/03/08 09:31:16;;;;;;;1.60;1.50;;;1.60;98.20;;;;;;5050096;28;20887;-74
2023/03/08 09:33:44;;;;;;;1.70;1.60;;;1.70;98.20;;;;;;5058870;28;20480;-74
2023/03/08 09:36:11;;;;;;;1.70;1.40;;;1.70;98.20;;;;;;5055198;28;20484;-76
2023/03/08 09:38:39;;;;;;;1.63;1.50;;;1.70;98.20;;;;;;5062759;28;20466;-75
2023/03/08 09:41:24;;;;;;;1.67;1.50;;;1.80;98.20;;;;;;5047740;28;20485;-75
2023/03/08 09:44:04;;;;;;;1.60;1.47;;;1.90;98.20;;;;;;5063209;28;20974;-75
2023/03/08 09:46:35;;;;;;;1.63;1.50;;;1.90;98.20;;;;;;5053491;28;20813;-75
2023/03/08 09:49:05;;;;;;;1.67;1.50;;;2.00;98.20;;;;;;5065014;28;20457;-75
2023/03/08 09:51:36;;;;;;;1.60;1.40;;;2.00;98.20;;;;;;5053489;28;20492;-74
2023/03/08 09:54:07;;;;;;;1.70;1.53;;;2.10;98.20;;;;;;5059131;28;20468;-75
2023/03/08 09:56:37;;;;;;;1.60;1.40;;;2.10;98.20;;;;;;5044549;28;20480;-75
2023/03/08 09:59:08;;;;;;;1.60;1.50;;;2.20;98.20;;;;;;5054669;28;20487;-76
2023/03/08 10:01:42;;;;;;;1.70;1.60;;;2.20;98.20;;;;;;5056805;28;21018;-75
2023/03/08 10:04:19;;;;;;;1.63;1.50;;;2.20;98.20;;;;;;5058465;28;20456;-75
2023/03/08 10:06:56;;;;;;;1.60;1.47;;;2.30;98.20;;;;;;5053264;28;20981;-75
2023/03/08 10:09:31;;;;;;;1.70;1.53;;;2.30;98.20;;;;;;5056840;28;20862;-77
2023/03/08 10:12:09;;;;;;;1.77;1.67;;;2.30;98.20;;;;;;5052815;28;20480;-77
2023/03/08 10:14:38;;;;;;;1.70;1.50;;;2.40;98.20;;;;;;5063734;28;20461;-77
2023/03/08 10:17:16;;;;;;;1.80;1.70;;;2.40;98.20;;;;;;5045993;28;20490;-76
2023/03/08 10:19:45;;;;;;;1.70;1.57;;;2.50;98.20;;;;;;5059362;28;20533;-77
2023/03/08 10:22:19;;;;;;;1.67;1.40;;;2.50;98.20;;;;;;5053972;28;20996;-77
2023/03/08 10:24:52;;;;;;;1.67;1.50;;;2.50;98.20;;;;;;5058207;28;20466;-77
2023/03/08 10:27:21;;;;;;;1.70;1.60;;;2.50;98.20;;;;;;5054106;28;20477;-78
2023/03/08 10:29:50;;;;;;;1.70;1.57;;;2.50;98.20;;;;;;5060264;28;20476;-78
2023/03/08 10:32:18;;;;;;;1.63;1.40;;;2.60;98.20;;;;;;5049740;28;20527;-78
2023/03/08 10:34:45;;;;;;;1.60;1.40;;;2.60;98.20;;;;;;5059015;28;20472;-79
2023/03/08 10:37:13;;;;;;;1.60;1.50;;;2.60;98.20;;;;;;5056493;28;21012;-79
2023/03/08 10:39:51;;;;;;;1.63;1.50;;;2.60;98.20;;;;;;5063670;28;20473;-78
2023/03/08 10:42:23;;;;;;;2.60;2.40;;;2.60;98.20;;;;;;5046625;28;20487;-78
2023/03/08 10:44:57;;;;;;;1.70;1.50;;;2.70;98.20;;;;;;5046879;28;20470;-79
2023/03/08 10:47:29;;;;;;;1.63;1.40;;;2.70;98.20;;;;;;5047164;28;20482;-79
2023/03/08 10:50:12;;;;;;;1.70;1.50;;;2.70;98.20;;;;;;5067286;28;20562;-78
2023/03/08 10:52:40;;;;;;;1.67;1.50;;;2.70;98.20;;;;;;5053157;28;20485;-78
2023/03/08 10:55:11;;;;;;;1.63;1.40;;;2.70;98.20;;;;;;5058382;28;20453;-79
2023/03/08 10:57:40;;;;;;;1.70;1.60;;;2.70;98.20;;;;;;5051633;28;21130;-78
2023/03/08 11:00:29;;;;;;;1.63;1.40;;;2.70;98.20;;;;;;5062263;28;20552;-79
2023/03/08 11:03:12;;;;;;;1.70;1.40;;;2.70;98.20;;;;;;5054123;28;20994;-79
2023/03/08 11:05:39;;;;;;;1.70;1.50;;;2.70;98.20;;;;;;5072425;28;20468;-80
2023/03/08 11:08:18;;;;;;;1.60;1.40;;;2.70;98.20;;;;;;5057400;28;20481;-79
2023/03/08 11:10:45;;;;;;;1.60;1.40;;;2.80;98.20;;;;;;5068558;28;20879;-80
2023/03/08 11:13:26;;;;;;;1.70;1.57;;;2.80;98.20;;;;;;5060295;28;20903;-80
2023/03/08 11:16:02;;;;;;;1.63;1.40;;;2.80;98.20;;;;;;5049179;28;20473;-81
2023/03/08 11:18:46;;;;;;;1.60;1.30;;;2.90;98.20;;;;;;5052237;28;20820;-81
2023/03/08 11:21:20;;;;;;;1.60;1.43;;;2.90;98.20;;;;;;5054861;28;20484;-81
2023/03/08 11:23:53;;;;;;;2.27;2.07;;;2.90;98.20;;;;;;5052099;28;20462;-80
2023/03/08 11:26:27;;;;;;;1.70;1.50;;;3.00;98.20;;;;;;5056087;28;21394;-80
2023/03/08 11:29:14;;;;;;;1.67;1.40;;;3.00;98.20;;;;;;5070277;28;20461;-80
2023/03/08 11:31:48;;;;;;;1.60;1.40;;;3.10;98.20;;;;;;5065515;28;20476;-81
2023/03/08 11:34:42;;;;;;;1.63;1.50;;;3.10;98.20;;;;;;5061097;28;20484;-81
2023/03/08 11:37:18;;;;;;;1.70;1.60;;;3.10;98.20;;;;;;5055902;28;20473;-82
2023/03/08 11:39:48;;;;;;;1.60;1.40;;;3.20;98.20;;;;;;5071497;28;20453;-81
2023/03/08 11:42:22;;;;;;;1.70;1.40;;;3.20;98.20;;;;;;5059675;28;20568;-82
2023/03/08 11:45:10;;;;;;;1.60;1.40;;;3.30;98.20;;;;;;5068410;28;20466;-81
2023/03/08 11:48:15;;;;;;;1.67;1.43;;;3.30;98.20;;;;;;5065639;28;20497;-82
2023/03/08 11:50:50;;;;;;;1.70;1.50;;;3.30;98.20;;;;;;5065138;28;20492;-81
2023/03/08 11:53:24;;;;;;;1.70;1.47;;;3.40;98.20;;;;;;5054738;28;20575;-82
2023/03/08 11:56:04;;;;;;;1.60;1.40;;;3.40;98.20;;;;;;5060361;28;20825;-82
2023/03/08 11:58:35;;;;;;;1.70;1.50;;;3.40;98.20;;;;;;5071788;28;20462;-81
2023/03/08 12:01:05;;;;;;;1.60;1.40;;;3.40;98.20;;;;;;5060968;28;20489;-81
2023/03/08 12:03:36;;;;;;;1.67;1.40;;;3.40;98.20;;;;;;5077333;28;20464;-81
2023/03/08 12:06:09;;;;;;;1.70;1.50;;;3.40;98.20;;;;;;5058509;28;21442;-81
2023/03/08 12:08:41;;;;;;;1.60;1.40;;;3.40;98.20;;;;;;5067346;28;20462;-80
2023/03/08 12:11:16;;;;;;;1.60;1.40;;;3.40;98.20;;;;;;5054853;28;20483;-80
2023/03/08 12:13:46;;;;;;;1.60;1.40;;;3.40;98.20;;;;;;5072292;28;20461;-79
2023/03/08 12:16:18;;;;;;;1.70;1.40;;;3.40;98.20;;;;;;5058275;28;20464;-80
2023/03/08 12:18:51;;;;;;;1.70;1.50;;;3.40;98.20;;;;;;5073390;28;20834;-81
2023/03/08 12:21:28;;;;;;;1.70;1.50;;;3.50;98.20;;;;;;5068603;28;20491;-80
2023/03/08 12:24:09;;;;;;;1.60;1.40;;;3.50;98.20;;;;;;5064563;28;20838;-80
2023/03/08 12:26:39;;;;;;;1.63;1.40;;;3.60;98.20;;;;;;5050535;28;21157;-79
2023/03/08 12:29:15;;;;;;;1.67;1.43;;;3.60;98.20;;;;;;5063545;28;20974;-81
2023/03/08 12:31:45;;;;;;;1.70;1.50;;;3.60;98.20;;;;;;5057069;28;20493;-80
2023/03/08 12:34:14;;;;;;;1.60;1.40;;;3.70;98.20;;;;;;5064436;28;20472;-79
2023/03/08 12:36:43;;;;;;;1.60;1.40;;;3.70;98.20;;;;;;5056951;28;20503;-80
2023/03/08 12:39:25;;;;;;;1.67;1.40;;;3.70;98.20;;;;;;5068197;28;20457;-80
2023/03/08 12:41:58;;;;;;;1.70;1.60;;;3.80;98.20;;;;;;5052734;28;20526;-80
2023/03/08 12:44:27;;;;;;;1.63;1.40;;;3.90;98.20;;;;;;5065014;28;20463;-80
2023/03/08 12:46:57;;;;;;;1.70;1.50;;;3.90;98.20;;;;;;5058528;28;20478;-81
2023/03/08 12:49:30;;;;;;;1.70;1.50;;;3.90;98.20;;;;;;5062805;28;21162;-80
2023/03/08 12:52:01;;;;;;;1.70;1.40;;;3.90;98.20;;;;;;5061367;28;20495;-80
2023/03/08 12:54:32;;;;;;;2.00;1.80;;;3.90;98.20;;;;;;5068511;28;20521;-80
2023/03/08 12:57:00;;;;;;;1.70;1.50;;;4.00;98.20;;;;;;5062776;28;20501;-80
2023/03/08 12:59:32;;;;;;;1.70;1.40;;;4.00;98.20;;;;;;5064273;28;20852;-79
2023/03/08 13:02:03;;;;;;;1.70;1.60;;;4.00;98.20;;;;;;5066798;28;20489;-79
2023/03/08 13:04:32;;;;;;;1.70;1.50;;;4.00;98.20;;;;;;5075168;28;20971;-79
2023/03/08 13:07:20;;;;;;;1.70;1.50;;;4.10;98.20;;;;;;5059513;28;20482;-80
2023/03/08 13:09:59;;;;;;;1.67;1.40;;;4.10;98.20;;;;;;5056279;28;20494;-80